sensor_id;sensor_type;location;lat;lon;timestamp;pressure;altitude;pressure_sealevel;temperature;humidity
21361;BME280;10839;43.206;23.550;2023-06-10T00:01:52;96743.91;;;19.86;87.07
21361;BME280;10839;43.206;23.550;2023-06-10T00:04:20;96739.50;;;19.80;88.90
21361;BME280;10839;43.206;23.550;2023-06-10T00:06:46;96740.03;;;19.77;89.84
21361;BME280;10839;43.206;23.550;2023-06-10T00:09:15;96733.53;;;19.88;90.00
21361;BME280;10839;43.206;23.550;2023-06-10T00:11:41;96735.34;;;20.14;88.23
21361;BME280;10839;43.206;23.550;2023-06-10T00:14:07;96746.38;;;20.24;87.54
21361;BME280;10839;43.206;23.550;2023-06-10T00:16:34;96734.41;;;20.41;85.54
21361;BME280;10839;43.206;23.550;2023-06-10T00:19:00;96737.16;;;20.46;83.39
21361;BME280;10839;43.206;23.550;2023-06-10T00:21:31;96738.28;;;20.60;82.37
21361;BME280;10839;43.206;23.550;2023-06-10T00:24:04;96741.47;;;20.31;84.04
21361;BME280;10839;43.206;23.550;2023-06-10T00:26:31;96734.53;;;20.14;85.91
21361;BME280;10839;43.206;23.550;2023-06-10T00:28:57;96746.91;;;20.26;85.84
21361;BME280;10839;43.206;23.550;2023-06-10T00:31:23;96730.41;;;20.11;86.86
21361;BME280;10839;43.206;23.550;2023-06-10T00:33:49;96743.06;;;20.17;86.55
21361;BME280;10839;43.206;23.550;2023-06-10T00:36:15;96743.63;;;20.24;86.24
21361;BME280;10839;43.206;23.550;2023-06-10T00:38:40;96751.31;;;20.27;86.96
21361;BME280;10839;43.206;23.550;2023-06-10T00:41:08;96745.88;;;20.38;87.10
21361;BME280;10839;43.206;23.550;2023-06-10T00:43:34;96752.25;;;20.11;90.21
21361;BME280;10839;43.206;23.550;2023-06-10T00:46:00;96751.66;;;19.99;91.27
21361;BME280;10839;43.206;23.550;2023-06-10T00:48:27;96750.88;;;20.09;92.03
21361;BME280;10839;43.206;23.550;2023-06-10T00:50:53;96757.09;;;19.94;92.35
21361;BME280;10839;43.206;23.550;2023-06-10T00:53:19;96758.88;;;20.15;92.14
21361;BME280;10839;43.206;23.550;2023-06-10T00:55:47;96752.47;;;20.00;94.01
21361;BME280;10839;43.206;23.550;2023-06-10T00:58:13;96750.19;;;19.87;96.12
21361;BME280;10839;43.206;23.550;2023-06-10T01:00:41;96754.00;;;20.22;94.94
21361;BME280;10839;43.206;23.550;2023-06-10T01:03:07;96750.72;;;20.25;97.76
21361;BME280;10839;43.206;23.550;2023-06-10T01:05:34;96753.28;;;20.00;100.00
21361;BME280;10839;43.206;23.550;2023-06-10T01:08:33;96753.41;;;20.15;99.75
21361;BME280;10839;43.206;23.550;2023-06-10T01:11:04;96749.59;;;20.21;100.00
21361;BME280;10839;43.206;23.550;2023-06-10T01:13:35;96759.47;;;20.22;100.00
21361;BME280;10839;43.206;23.550;2023-06-10T01:16:01;96747.47;;;20.28;98.42
21361;BME280;10839;43.206;23.550;2023-06-10T01:18:31;96743.06;;;20.22;100.00
21361;BME280;10839;43.206;23.550;2023-06-10T01:20:58;96750.88;;;20.09;100.00
21361;BME280;10839;43.206;23.550;2023-06-10T01:23:23;96744.00;;;20.01;100.00
21361;BME280;10839;43.206;23.550;2023-06-10T01:25:56;96745.06;;;19.95;100.00
21361;BME280;10839;43.206;23.550;2023-06-10T01:33:33;96741.66;;;19.78;100.00
21361;BME280;10839;43.206;23.550;2023-06-10T01:36:02;96724.59;;;19.56;100.00
21361;BME280;10839;43.206;23.550;2023-06-10T01:38:32;96727.56;;;19.55;100.00
21361;BME280;10839;43.206;23.550;2023-06-10T01:40:59;96717.88;;;19.37;100.00
21361;BME280;10839;43.206;23.550;2023-06-10T01:43:26;96719.03;;;19.41;100.00
21361;BME280;10839;43.206;23.550;2023-06-10T01:45:52;96716.47;;;19.30;100.00
21361;BME280;10839;43.206;23.550;2023-06-10T01:48:18;96728.19;;;19.30;100.00
21361;BME280;10839;43.206;23.550;2023-06-10T01:50:44;96720.09;;;19.40;100.00
21361;BME280;10839;43.206;23.550;2023-06-10T01:53:10;96721.34;;;19.59;100.00
21361;BME280;10839;43.206;23.550;2023-06-10T01:55:36;96730.59;;;19.58;100.00
21361;BME280;10839;43.206;23.550;2023-06-10T01:58:02;96722.97;;;19.60;100.00
21361;BME280;10839;43.206;23.550;2023-06-10T02:00:28;96727.75;;;19.43;100.00
21361;BME280;10839;43.206;23.550;2023-06-10T02:02:54;96717.94;;;19.42;100.00
21361;BME280;10839;43.206;23.550;2023-06-10T02:05:20;96729.94;;;19.41;100.00
21361;BME280;10839;43.206;23.550;2023-06-10T02:07:45;96734.06;;;19.17;100.00
21361;BME280;10839;43.206;23.550;2023-06-10T02:10:12;96737.06;;;18.89;100.00
21361;BME280;10839;43.206;23.550;2023-06-10T02:12:38;96740.13;;;18.71;100.00
21361;BME280;10839;43.206;23.550;2023-06-10T02:15:04;96744.50;;;18.72;100.00
21361;BME280;10839;43.206;23.550;2023-06-10T02:17:30;96746.00;;;18.58;100.00
21361;BME280;10839;43.206;23.550;2023-06-10T02:19:56;96742.38;;;18.52;100.00
21361;BME280;10839;43.206;23.550;2023-06-10T02:22:23;96745.53;;;18.66;100.00
21361;BME280;10839;43.206;23.550;2023-06-10T02:24:49;96754.72;;;18.60;100.00
21361;BME280;10839;43.206;23.550;2023-06-10T02:27:16;96739.72;;;18.57;100.00
21361;BME280;10839;43.206;23.550;2023-06-10T02:29:42;96745.22;;;18.41;100.00
21361;BME280;10839;43.206;23.550;2023-06-10T02:32:10;96743.09;;;18.43;100.00
21361;BME280;10839;43.206;23.550;2023-06-10T02:34:36;96751.97;;;18.55;100.00
21361;BME280;10839;43.206;23.550;2023-06-10T02:37:05;96747.84;;;18.36;100.00
21361;BME280;10839;43.206;23.550;2023-06-10T02:39:31;96746.72;;;18.32;100.00
21361;BME280;10839;43.206;23.550;2023-06-10T02:41:58;96751.16;;;18.38;100.00
21361;BME280;10839;43.206;23.550;2023-06-10T02:44:24;96740.84;;;18.18;100.00
21361;BME280;10839;43.206;23.550;2023-06-10T02:46:50;96748.63;;;18.10;100.00
21361;BME280;10839;43.206;23.550;2023-06-10T02:49:16;96743.97;;;18.10;100.00
21361;BME280;10839;43.206;23.550;2023-06-10T02:51:44;96743.03;;;18.00;100.00
21361;BME280;10839;43.206;23.550;2023-06-10T02:54:11;96746.88;;;18.04;100.00
21361;BME280;10839;43.206;23.550;2023-06-10T02:56:37;96735.91;;;17.99;100.00
21361;BME280;10839;43.206;23.550;2023-06-10T02:59:06;96748.63;;;18.10;100.00
21361;BME280;10839;43.206;23.550;2023-06-10T03:01:34;96744.53;;;17.91;100.00
21361;BME280;10839;43.206;23.550;2023-06-10T03:04:07;96748.84;;;17.87;100.00
21361;BME280;10839;43.206;23.550;2023-06-10T03:06:34;96751.06;;;17.90;100.00
21361;BME280;10839;43.206;23.550;2023-06-10T03:09:10;96755.91;;;17.88;100.00
21361;BME280;10839;43.206;23.550;2023-06-10T03:11:37;96753.59;;;17.96;100.00
21361;BME280;10839;43.206;23.550;2023-06-10T03:14:03;96749.09;;;18.07;100.00
21361;BME280;10839;43.206;23.550;2023-06-10T03:16:31;96757.03;;;18.08;100.00
21361;BME280;10839;43.206;23.550;2023-06-10T03:18:58;96750.38;;;18.21;100.00
21361;BME280;10839;43.206;23.550;2023-06-10T03:21:24;96752.72;;;18.12;100.00
21361;BME280;10839;43.206;23.550;2023-06-10T03:23:51;96756.34;;;18.18;100.00
21361;BME280;10839;43.206;23.550;2023-06-10T03:26:17;96753.69;;;18.23;100.00
21361;BME280;10839;43.206;23.550;2023-06-10T03:28:47;96751.03;;;18.28;100.00
21361;BME280;10839;43.206;23.550;2023-06-10T03:31:14;96751.41;;;18.15;100.00
21361;BME280;10839;43.206;23.550;2023-06-10T03:33:43;96748.44;;;18.16;100.00
21361;BME280;10839;43.206;23.550;2023-06-10T03:36:09;96751.88;;;18.12;100.00
21361;BME280;10839;43.206;23.550;2023-06-10T03:38:36;96762.50;;;18.30;100.00
21361;BME280;10839;43.206;23.550;2023-06-10T03:41:03;96762.56;;;18.35;100.00
21361;BME280;10839;43.206;23.550;2023-06-10T03:43:29;96756.09;;;18.19;100.00
21361;BME280;10839;43.206;23.550;2023-06-10T03:45:57;96760.56;;;18.09;100.00
21361;BME280;10839;43.206;23.550;2023-06-10T03:48:23;96764.31;;;18.03;100.00
21361;BME280;10839;43.206;23.550;2023-06-10T03:50:51;96754.44;;;17.97;100.00
21361;BME280;10839;43.206;23.550;2023-06-10T03:53:20;96756.56;;;17.95;100.00
21361;BME280;10839;43.206;23.550;2023-06-10T03:55:46;96752.25;;;17.99;100.00
21361;BME280;10839;43.206;23.550;2023-06-10T03:58:14;96753.56;;;18.13;100.00
21361;BME280;10839;43.206;23.550;2023-06-10T04:00:41;96750.31;;;18.16;100.00
21361;BME280;10839;43.206;23.550;2023-06-10T04:03:08;96757.69;;;17.99;100.00
21361;BME280;10839;43.206;23.550;2023-06-10T04:05:40;96762.63;;;18.02;100.00
21361;BME280;10839;43.206;23.550;2023-06-10T04:08:08;96765.50;;;18.12;100.00
21361;BME280;10839;43.206;23.550;2023-06-10T04:10:34;96751.88;;;18.12;100.00
21361;BME280;10839;43.206;23.550;2023-06-10T04:13:00;96746.94;;;18.09;100.00
21361;BME280;10839;43.206;23.550;2023-06-10T04:15:30;96756.22;;;18.08;100.00
21361;BME280;10839;43.206;23.550;2023-06-10T04:18:02;96761.66;;;18.08;100.00
21361;BME280;10839;43.206;23.550;2023-06-10T04:20:28;96762.13;;;18.21;100.00
21361;BME280;10839;43.206;23.550;2023-06-10T04:22:54;96758.63;;;18.26;100.00
21361;BME280;10839;43.206;23.550;2023-06-10T04:25:20;96753.81;;;18.33;100.00
21361;BME280;10839;43.206;23.550;2023-06-10T04:27:48;96753.53;;;18.51;100.00
21361;BME280;10839;43.206;23.550;2023-06-10T04:30:15;96748.28;;;18.44;100.00
21361;BME280;10839;43.206;23.550;2023-06-10T04:32:41;96748.84;;;18.46;100.00
21361;BME280;10839;43.206;23.550;2023-06-10T04:35:22;96758.41;;;18.49;100.00
21361;BME280;10839;43.206;23.550;2023-06-10T04:37:48;96747.94;;;18.62;100.00
21361;BME280;10839;43.206;23.550;2023-06-10T04:40:18;96749.59;;;18.90;100.00
21361;BME280;10839;43.206;23.550;2023-06-10T04:42:46;96759.59;;;19.33;100.00
21361;BME280;10839;43.206;23.550;2023-06-10T04:45:12;96757.91;;;19.58;100.00
21361;BME280;10839;43.206;23.550;2023-06-10T04:47:39;96759.53;;;20.99;94.98
21361;BME280;10839;43.206;23.550;2023-06-10T04:50:06;96756.56;;;21.16;94.24
21361;BME280;10839;43.206;23.550;2023-06-10T04:52:32;96768.06;;;21.48;95.55
21361;BME280;10839;43.206;23.550;2023-06-10T04:54:59;96766.41;;;21.27;97.86
21361;BME280;10839;43.206;23.550;2023-06-10T04:57:25;96767.00;;;21.44;96.13
21361;BME280;10839;43.206;23.550;2023-06-10T04:59:52;96767.00;;;21.49;94.78
21361;BME280;10839;43.206;23.550;2023-06-10T05:02:18;96774.09;;;21.75;93.87
21361;BME280;10839;43.206;23.550;2023-06-10T05:04:44;96774.69;;;21.82;94.47
21361;BME280;10839;43.206;23.550;2023-06-10T05:07:10;96777.16;;;21.84;96.85
21361;BME280;10839;43.206;23.550;2023-06-10T05:09:35;96778.50;;;21.96;97.42
21361;BME280;10839;43.206;23.550;2023-06-10T05:12:02;96782.84;;;24.22;83.12
21361;BME280;10839;43.206;23.550;2023-06-10T05:14:28;96794.88;;;27.13;69.71
21361;BME280;10839;43.206;23.550;2023-06-10T05:16:54;96796.56;;;29.30;58.76
21361;BME280;10839;43.206;23.550;2023-06-10T05:19:19;96788.91;;;30.64;53.05
21361;BME280;10839;43.206;23.550;2023-06-10T05:21:45;96789.50;;;30.78;51.61
21361;BME280;10839;43.206;23.550;2023-06-10T05:24:11;96787.78;;;32.22;47.80
21361;BME280;10839;43.206;23.550;2023-06-10T05:26:37;96793.78;;;32.90;45.13
21361;BME280;10839;43.206;23.550;2023-06-10T05:29:04;96787.84;;;30.31;50.06
21361;BME280;10839;43.206;23.550;2023-06-10T05:31:30;96789.69;;;28.80;55.07
21361;BME280;10839;43.206;23.550;2023-06-10T05:33:57;96788.53;;;27.26;60.03
21361;BME280;10839;43.206;23.550;2023-06-10T05:36:23;96785.66;;;26.50;62.96
21361;BME280;10839;43.206;23.550;2023-06-10T05:38:50;96773.41;;;25.78;66.35
21361;BME280;10839;43.206;23.550;2023-06-10T05:41:16;96781.25;;;24.92;68.23
21361;BME280;10839;43.206;23.550;2023-06-10T05:43:42;96770.13;;;24.78;69.59
21361;BME280;10839;43.206;23.550;2023-06-10T05:46:08;96771.69;;;24.09;71.02
21361;BME280;10839;43.206;23.550;2023-06-10T05:48:34;96774.91;;;23.87;72.09
21361;BME280;10839;43.206;23.550;2023-06-10T05:51:00;96769.84;;;23.27;72.59
21361;BME280;10839;43.206;23.550;2023-06-10T05:53:26;96772.44;;;22.98;74.23
21361;BME280;10839;43.206;23.550;2023-06-10T05:55:51;96774.97;;;22.90;75.38
21361;BME280;10839;43.206;23.550;2023-06-10T05:58:19;96769.28;;;23.25;74.17
21361;BME280;10839;43.206;23.550;2023-06-10T06:00:45;96766.56;;;23.20;75.06
21361;BME280;10839;43.206;23.550;2023-06-10T06:03:12;96773.84;;;22.96;79.53
21361;BME280;10839;43.206;23.550;2023-06-10T06:05:37;96779.13;;;22.82;81.40
21361;BME280;10839;43.206;23.550;2023-06-10T06:08:07;96782.41;;;22.84;83.11
21361;BME280;10839;43.206;23.550;2023-06-10T06:10:34;96786.50;;;22.87;83.95
21361;BME280;10839;43.206;23.550;2023-06-10T06:13:00;96778.78;;;22.94;84.39
21361;BME280;10839;43.206;23.550;2023-06-10T06:15:26;96786.50;;;22.87;85.84
21361;BME280;10839;43.206;23.550;2023-06-10T06:17:53;96788.69;;;22.85;87.09
21361;BME280;10839;43.206;23.550;2023-06-10T06:20:22;96786.88;;;23.24;83.46
21361;BME280;10839;43.206;23.550;2023-06-10T06:22:48;96779.03;;;23.46;83.32
21361;BME280;10839;43.206;23.550;2023-06-10T06:25:14;96776.69;;;23.24;85.90
21361;BME280;10839;43.206;23.550;2023-06-10T06:27:40;96772.66;;;23.12;87.69
21361;BME280;10839;43.206;23.550;2023-06-10T06:30:07;96773.44;;;23.22;87.96
21361;BME280;10839;43.206;23.550;2023-06-10T06:32:33;96774.66;;;23.45;86.25
21361;BME280;10839;43.206;23.550;2023-06-10T06:34:59;96776.19;;;23.61;84.10
21361;BME280;10839;43.206;23.550;2023-06-10T06:37:25;96778.56;;;23.39;84.68
21361;BME280;10839;43.206;23.550;2023-06-10T06:40:02;96770.13;;;23.20;85.62
21361;BME280;10839;43.206;23.550;2023-06-10T06:42:29;96763.22;;;23.33;84.87
21361;BME280;10839;43.206;23.550;2023-06-10T06:45:16;96758.72;;;23.47;83.56
21361;BME280;10839;43.206;23.550;2023-06-10T06:47:42;96760.59;;;23.85;79.80
21361;BME280;10839;43.206;23.550;2023-06-10T06:50:09;96757.78;;;24.47;77.21
21361;BME280;10839;43.206;23.550;2023-06-10T06:52:35;96766.81;;;25.00;74.63
21361;BME280;10839;43.206;23.550;2023-06-10T06:55:01;96752.19;;;25.42;74.00
21361;BME280;10839;43.206;23.550;2023-06-10T06:57:27;96749.78;;;25.54;71.81
21361;BME280;10839;43.206;23.550;2023-06-10T06:59:53;96759.94;;;25.58;69.95
21361;BME280;10839;43.206;23.550;2023-06-10T07:02:19;96759.28;;;25.05;70.75
21361;BME280;10839;43.206;23.550;2023-06-10T07:04:45;96752.03;;;24.67;72.45
21361;BME280;10839;43.206;23.550;2023-06-10T07:07:12;96751.16;;;24.77;72.58
21361;BME280;10839;43.206;23.550;2023-06-10T07:09:38;96757.03;;;24.70;72.17
21361;BME280;10839;43.206;23.550;2023-06-10T07:12:05;96754.69;;;25.19;71.50
21361;BME280;10839;43.206;23.550;2023-06-10T07:14:31;96756.09;;;24.98;70.29
21361;BME280;10839;43.206;23.550;2023-06-10T07:16:57;96754.78;;;25.33;69.43
21361;BME280;10839;43.206;23.550;2023-06-10T07:19:22;96760.25;;;25.57;69.83
21361;BME280;10839;43.206;23.550;2023-06-10T07:21:48;96753.88;;;25.75;68.17
21361;BME280;10839;43.206;23.550;2023-06-10T07:24:14;96756.03;;;25.78;68.38
21361;BME280;10839;43.206;23.550;2023-06-10T07:26:40;96767.97;;;25.55;67.39
21361;BME280;10839;43.206;23.550;2023-06-10T07:29:06;96768.22;;;24.97;68.93
21361;BME280;10839;43.206;23.550;2023-06-10T07:31:31;96758.22;;;25.25;66.83
21361;BME280;10839;43.206;23.550;2023-06-10T07:33:57;96754.41;;;25.77;68.42
21361;BME280;10839;43.206;23.550;2023-06-10T07:36:23;96755.13;;;25.64;69.63
21361;BME280;10839;43.206;23.550;2023-06-10T07:38:49;96761.91;;;25.90;69.77
21361;BME280;10839;43.206;23.550;2023-06-10T07:41:15;96765.44;;;25.40;70.28
21361;BME280;10839;43.206;23.550;2023-06-10T07:43:43;96759.75;;;25.12;71.93
21361;BME280;10839;43.206;23.550;2023-06-10T07:46:09;96751.34;;;25.78;69.40
21361;BME280;10839;43.206;23.550;2023-06-10T07:48:35;96761.69;;;25.68;69.74
21361;BME280;10839;43.206;23.550;2023-06-10T07:51:01;96767.38;;;25.58;70.28
21361;BME280;10839;43.206;23.550;2023-06-10T07:53:26;96761.69;;;25.68;70.18
21361;BME280;10839;43.206;23.550;2023-06-10T07:55:53;96769.47;;;25.98;68.53
21361;BME280;10839;43.206;23.550;2023-06-10T07:58:19;96774.34;;;26.19;67.82
21361;BME280;10839;43.206;23.550;2023-06-10T08:00:46;96774.63;;;26.04;68.91
21361;BME280;10839;43.206;23.550;2023-06-10T08:03:12;96767.03;;;26.42;69.80
21361;BME280;10839;43.206;23.550;2023-06-10T08:05:39;96773.59;;;26.46;69.52
21361;BME280;10839;43.206;23.550;2023-06-10T08:08:05;96749.69;;;26.55;69.17
21361;BME280;10839;43.206;23.550;2023-06-10T08:10:31;96764.44;;;26.91;67.78
21361;BME280;10839;43.206;23.550;2023-06-10T08:12:57;96765.09;;;27.37;64.57
21361;BME280;10839;43.206;23.550;2023-06-10T08:15:23;96762.53;;;27.27;62.57
21361;BME280;10839;43.206;23.550;2023-06-10T08:17:48;96761.13;;;26.62;65.28
21361;BME280;10839;43.206;23.550;2023-06-10T08:20:15;96766.44;;;26.45;68.05
21361;BME280;10839;43.206;23.550;2023-06-10T08:22:40;96759.47;;;26.34;68.21
21361;BME280;10839;43.206;23.550;2023-06-10T08:25:06;96761.34;;;26.79;66.96
21361;BME280;10839;43.206;23.550;2023-06-10T08:27:32;96763.59;;;26.50;67.91
21361;BME280;10839;43.206;23.550;2023-06-10T08:29:59;96769.31;;;26.40;68.52
21361;BME280;10839;43.206;23.550;2023-06-10T08:32:26;96764.38;;;26.37;67.67
21361;BME280;10839;43.206;23.550;2023-06-10T08:34:52;96771.34;;;25.84;68.93
21361;BME280;10839;43.206;23.550;2023-06-10T08:37:17;96765.63;;;25.80;70.04
21361;BME280;10839;43.206;23.550;2023-06-10T08:39:43;96757.00;;;26.32;68.34
21361;BME280;10839;43.206;23.550;2023-06-10T08:42:29;96760.94;;;25.81;69.02
21361;BME280;10839;43.206;23.550;2023-06-10T08:45:00;96757.00;;;26.32;66.51
21361;BME280;10839;43.206;23.550;2023-06-10T08:47:29;96755.63;;;26.89;64.23
21361;BME280;10839;43.206;23.550;2023-06-10T08:49:58;96750.09;;;26.76;63.01
21361;BME280;10839;43.206;23.550;2023-06-10T08:52:35;96746.41;;;26.39;63.49
21361;BME280;10839;43.206;23.550;2023-06-10T08:55:32;96741.00;;;26.02;64.99
21361;BME280;10839;43.206;23.550;2023-06-10T08:58:02;96743.88;;;26.11;64.71
21361;BME280;10839;43.206;23.550;2023-06-10T09:00:30;96737.41;;;26.61;63.11
21361;BME280;10839;43.206;23.550;2023-06-10T09:02:58;96741.72;;;26.67;62.63
21361;BME280;10839;43.206;23.550;2023-06-10T09:05:24;96740.31;;;26.83;61.88
21361;BME280;10839;43.206;23.550;2023-06-10T09:07:52;96735.25;;;25.99;62.02
21361;BME280;10839;43.206;23.550;2023-06-10T09:10:19;96739.81;;;26.22;62.65
21361;BME280;10839;43.206;23.550;2023-06-10T09:12:46;96742.06;;;26.33;62.70
21361;BME280;10839;43.206;23.550;2023-06-10T09:15:11;96740.16;;;26.34;63.18
21361;BME280;10839;43.206;23.550;2023-06-10T09:17:38;96737.78;;;26.27;63.43
21361;BME280;10839;43.206;23.550;2023-06-10T09:20:07;96731.56;;;26.49;62.21
21361;BME280;10839;43.206;23.550;2023-06-10T09:22:34;96739.22;;;26.25;62.83
21361;BME280;10839;43.206;23.550;2023-06-10T09:25:08;96731.22;;;26.10;62.57
21361;BME280;10839;43.206;23.550;2023-06-10T09:27:51;96729.81;;;26.26;62.80
21361;BME280;10839;43.206;23.550;2023-06-10T09:30:31;96724.53;;;26.43;62.60
21361;BME280;10839;43.206;23.550;2023-06-10T09:32:59;96730.13;;;27.06;61.36
21361;BME280;10839;43.206;23.550;2023-06-10T09:35:27;96728.97;;;27.07;59.94
21361;BME280;10839;43.206;23.550;2023-06-10T09:37:55;96724.81;;;26.96;59.34
21361;BME280;10839;43.206;23.550;2023-06-10T09:40:21;96724.25;;;27.21;58.47
21361;BME280;10839;43.206;23.550;2023-06-10T09:42:53;96725.91;;;27.80;56.01
21361;BME280;10839;43.206;23.550;2023-06-10T09:45:21;96717.28;;;27.95;54.80
21361;BME280;10839;43.206;23.550;2023-06-10T09:47:50;96722.47;;;27.74;54.34
21361;BME280;10839;43.206;23.550;2023-06-10T09:50:20;96723.38;;;27.47;54.25
21361;BME280;10839;43.206;23.550;2023-06-10T09:52:46;96726.13;;;27.83;54.82
21361;BME280;10839;43.206;23.550;2023-06-10T09:55:14;96722.56;;;28.44;53.73
21361;BME280;10839;43.206;23.550;2023-06-10T09:57:40;96727.91;;;29.27;50.47
21361;BME280;10839;43.206;23.550;2023-06-10T10:00:09;96712.91;;;29.45;48.96
21361;BME280;10839;43.206;23.550;2023-06-10T10:02:48;96711.97;;;28.85;50.86
21361;BME280;10839;43.206;23.550;2023-06-10T10:05:17;96716.34;;;28.69;52.13
21361;BME280;10839;43.206;23.550;2023-06-10T10:07:43;96724.66;;;29.25;50.67
21361;BME280;10839;43.206;23.550;2023-06-10T10:10:10;96714.06;;;28.71;51.05
21361;BME280;10839;43.206;23.550;2023-06-10T10:12:39;96706.00;;;27.91;51.72
21361;BME280;10839;43.206;23.550;2023-06-10T10:15:07;96708.19;;;28.03;50.33
21361;BME280;10839;43.206;23.550;2023-06-10T10:17:44;96698.47;;;28.14;51.45
21361;BME280;10839;43.206;23.550;2023-06-10T10:20:13;96693.28;;;27.90;50.77
21361;BME280;10839;43.206;23.550;2023-06-10T10:22:42;96697.41;;;28.54;49.35
21361;BME280;10839;43.206;23.550;2023-06-10T10:25:16;96693.31;;;28.21;48.07
21361;BME280;10839;43.206;23.550;2023-06-10T10:27:51;96697.00;;;27.41;50.30
21361;BME280;10839;43.206;23.550;2023-06-10T10:30:20;96686.56;;;27.38;50.86
21361;BME280;10839;43.206;23.550;2023-06-10T10:33:00;96689.66;;;27.23;50.12
21361;BME280;10839;43.206;23.550;2023-06-10T10:35:32;96693.38;;;27.05;50.24
21361;BME280;10839;43.206;23.550;2023-06-10T10:37:59;96687.03;;;28.07;49.57
21361;BME280;10839;43.206;23.550;2023-06-10T10:40:26;96678.22;;;28.35;49.13
21361;BME280;10839;43.206;23.550;2023-06-10T10:42:56;96683.88;;;27.11;50.47
21361;BME280;10839;43.206;23.550;2023-06-10T10:45:23;96677.59;;;27.19;50.34
21361;BME280;10839;43.206;23.550;2023-06-10T10:47:54;96670.16;;;28.17;49.10
21361;BME280;10839;43.206;23.550;2023-06-10T10:50:22;96671.69;;;28.23;49.68
21361;BME280;10839;43.206;23.550;2023-06-10T10:52:56;96679.84;;;28.67;45.05
21361;BME280;10839;43.206;23.550;2023-06-10T10:55:27;96683.75;;;28.66;40.34
21361;BME280;10839;43.206;23.550;2023-06-10T10:57:58;96677.63;;;27.63;42.17
21361;BME280;10839;43.206;23.550;2023-06-10T11:00:33;96667.44;;;27.28;43.89
21361;BME280;10839;43.206;23.550;2023-06-10T11:03:06;96674.16;;;28.02;44.01
21361;BME280;10839;43.206;23.550;2023-06-10T11:05:37;96670.22;;;27.28;37.90
21361;BME280;10839;43.206;23.550;2023-06-10T11:08:04;96661.03;;;27.19;40.92
21361;BME280;10839;43.206;23.550;2023-06-10T11:10:33;96666.47;;;27.91;40.51
21361;BME280;10839;43.206;23.550;2023-06-10T11:12:59;96665.22;;;26.81;39.91
21361;BME280;10839;43.206;23.550;2023-06-10T11:15:27;96660.09;;;26.61;40.66
21361;BME280;10839;43.206;23.550;2023-06-10T11:23:26;96648.06;;;26.30;41.84
21361;BME280;10839;43.206;23.550;2023-06-10T11:26:18;96645.09;;;26.67;42.83
21361;BME280;10839;43.206;23.550;2023-06-10T11:31:23;96640.69;;;25.98;47.30
21361;BME280;10839;43.206;23.550;2023-06-10T11:33:53;96636.63;;;26.50;45.52
21361;BME280;10839;43.206;23.550;2023-06-10T11:36:19;96626.59;;;27.25;44.36
21361;BME280;10839;43.206;23.550;2023-06-10T11:38:45;96626.63;;;26.13;46.33
21361;BME280;10839;43.206;23.550;2023-06-10T11:41:11;96632.53;;;26.34;45.24
21361;BME280;10839;43.206;23.550;2023-06-10T11:43:46;96625.19;;;26.16;45.37
21361;BME280;10839;43.206;23.550;2023-06-10T11:46:13;96622.72;;;26.55;43.87
21361;BME280;10839;43.206;23.550;2023-06-10T11:48:48;96601.31;;;26.74;42.66
21361;BME280;10839;43.206;23.550;2023-06-10T11:51:14;96615.97;;;26.48;41.57
21361;BME280;10839;43.206;23.550;2023-06-10T11:53:40;96623.34;;;26.25;42.37
21361;BME280;10839;43.206;23.550;2023-06-10T11:56:05;96622.50;;;26.38;41.26
21361;BME280;10839;43.206;23.550;2023-06-10T11:58:31;96622.81;;;26.50;41.68
21361;BME280;10839;43.206;23.550;2023-06-10T12:00:57;96619.66;;;26.02;41.41
21361;BME280;10839;43.206;23.550;2023-06-10T12:03:24;96619.13;;;26.14;41.47
21361;BME280;10839;43.206;23.550;2023-06-10T12:06:02;96610.63;;;26.78;40.55
21361;BME280;10839;43.206;23.550;2023-06-10T12:08:28;96607.50;;;26.93;39.50
21361;BME280;10839;43.206;23.550;2023-06-10T12:10:55;96603.44;;;26.77;40.33
21361;BME280;10839;43.206;23.550;2023-06-10T12:13:22;96606.75;;;26.52;40.52
21361;BME280;10839;43.206;23.550;2023-06-10T12:15:49;96616.38;;;26.41;40.01
21361;BME280;10839;43.206;23.550;2023-06-10T12:18:20;96609.09;;;26.72;39.53
21361;BME280;10839;43.206;23.550;2023-06-10T12:20:46;96605.88;;;26.79;39.19
21361;BME280;10839;43.206;23.550;2023-06-10T12:23:15;96603.75;;;27.11;39.10
21361;BME280;10839;43.206;23.550;2023-06-10T12:25:51;96605.84;;;26.92;39.37
21361;BME280;10839;43.206;23.550;2023-06-10T12:28:23;96607.59;;;26.25;40.40
21361;BME280;10839;43.206;23.550;2023-06-10T12:30:48;96603.81;;;26.35;40.54
21361;BME280;10839;43.206;23.550;2023-06-10T12:33:21;96596.53;;;26.66;40.59
21361;BME280;10839;43.206;23.550;2023-06-10T12:35:49;96595.13;;;26.14;41.76
21361;BME280;10839;43.206;23.550;2023-06-10T12:38:21;96590.56;;;26.59;41.33
21361;BME280;10839;43.206;23.550;2023-06-10T12:40:47;96578.34;;;26.52;41.25
21361;BME280;10839;43.206;23.550;2023-06-10T12:43:13;96586.84;;;27.13;39.80
21361;BME280;10839;43.206;23.550;2023-06-10T12:45:40;96596.63;;;26.61;40.66
21361;BME280;10839;43.206;23.550;2023-06-10T12:48:16;96584.38;;;26.89;39.90
21361;BME280;10839;43.206;23.550;2023-06-10T12:50:43;96584.59;;;26.93;39.63
21361;BME280;10839;43.206;23.550;2023-06-10T12:53:10;96589.13;;;26.75;40.35
21361;BME280;10839;43.206;23.550;2023-06-10T12:55:37;96579.66;;;26.54;41.78
21361;BME280;10839;43.206;23.550;2023-06-10T12:58:04;96574.88;;;26.46;42.55
21361;BME280;10839;43.206;23.550;2023-06-10T13:00:30;96572.28;;;26.63;42.22
21361;BME280;10839;43.206;23.550;2023-06-10T13:02:57;96576.75;;;27.08;41.34
21361;BME280;10839;43.206;23.550;2023-06-10T13:05:23;96579.28;;;27.27;41.75